WetterOnline ( http://www.wetteronline.de )

Wetter aktuell Palermo

Aktuelles Wetter: Trapani/Birgi (14m)

6-stündlich | Neueste Meldungen
Ortszeit Temperatur Wetter
Fr, 22.02. 1:00 12.2° C leicht bewölkt
Do, 21.02. 19:00 11.8° C leicht bewölkt
Do, 21.02. 13:00 15.0° C leicht bewölkt
Do, 21.02. 7:00 4.0° C fast wolkenlos
Do, 21.02. 1:00 5.8° C wolkenlos
Mi, 20.02. 19:00 10.8° C leicht bewölkt
Mi, 20.02. 13:00 15.2° C leicht bewölkt
Mi, 20.02. 7:00 6.8° C leicht bewölkt
Ortszeit Temperatur Wetter
Fr, 22.02. 3:00 12.0° C wolkig
Fr, 22.02. 2:55 12° C bewölkt
Fr, 22.02. 2:00 12.2° C wolkig
Fr, 22.02. 1:55 12° C bewölkt
Fr, 22.02. 1:00 12.2° C leicht bewölkt
Fr, 22.02. 0:55 12° C leicht bewölkt
Fr, 22.02. 0:00 11.4° C leicht bewölkt
Do, 21.02. 23:55 11° C leicht bewölkt
Do, 21.02. 23:00 11.4° C leicht bewölkt
Ortszeit Relative Feuchte Sichtweite
Fr, 22.02. 1:00 90% 12 km
Do, 21.02. 19:00 87% 18 km
Do, 21.02. 13:00 60% 22 km
Do, 21.02. 7:00 89% 20 km
Do, 21.02. 1:00 90% 12 km
Mi, 20.02. 19:00 89% 16 km
Mi, 20.02. 13:00 63% 20 km
Mi, 20.02. 7:00 90% 18 km
Ortszeit Relative Feuchte Sichtweite
Fr, 22.02. 3:00 90% 12 km
Fr, 22.02. 2:55 88% >10 km
Fr, 22.02. 2:00 92% 12 km
Fr, 22.02. 1:55 94% >10 km
Fr, 22.02. 1:00 90% 12 km
Fr, 22.02. 0:55 94% >10 km
Fr, 22.02. 0:00 90% 12 km
Do, 21.02. 23:55 94% >10 km
Do, 21.02. 23:00 88% 12 km
Ortszeit Niederschlagsmenge Niederschlagsart
Fr, 22.02. 1:00 0.0 l/m2 in 6 Std. -
Do, 21.02. 19:00 0.0 l/m2 in 12 Std. -
Do, 21.02. 13:00 0.0 l/m2 in 6 Std. -
Do, 21.02. 7:00 0.0 l/m2 in 12 Std. -
Do, 21.02. 1:00 0.0 l/m2 in 6 Std. -
Mi, 20.02. 19:00 0.0 l/m2 in 12 Std. -
Mi, 20.02. 13:00 0.0 l/m2 in 6 Std. -
Mi, 20.02. 7:00 0.0 l/m2 in 12 Std. -
Ortszeit Niederschlagsmenge Niederschlagsart
Fr, 22.02. 3:00 keine Meldung -
Fr, 22.02. 2:55 keine Meldung -
Fr, 22.02. 2:00 keine Meldung -
Fr, 22.02. 1:55 keine Meldung -
Fr, 22.02. 1:00 keine Meldung -
Fr, 22.02. 0:55 keine Meldung -
Fr, 22.02. 0:00 keine Meldung -
Do, 21.02. 23:55 keine Meldung -
Do, 21.02. 23:00 keine Meldung -
Ortszeit Stärke Spitze Richtung
km/h Bft. km/h Grad Sektor
Fr, 22.02. 1:00 13 3 - 330° NW
Do, 21.02. 19:00 13 3 - 360° N
Do, 21.02. 13:00 22 4 - 360° N
Do, 21.02. 7:00 2 1 - - -
Do, 21.02. 1:00 6 1 - 100° O
Mi, 20.02. 19:00 6 1 - 20° N
Mi, 20.02. 13:00 13 3 - 320° NW
Mi, 20.02. 7:00 11 2 - 100° O
Ortszeit Stärke Spitze Richtung
km/h Bft. km/h Grad Sektor
Fr, 22.02. 3:00 13 3 - 340° N
Fr, 22.02. 2:55 13 3 - 340° N
Fr, 22.02. 2:00 13 3 - 340° N
Fr, 22.02. 1:55 13 3 - 340° N
Fr, 22.02. 1:00 13 3 - 330° NW
Fr, 22.02. 0:55 13 3 - 330° NW
Fr, 22.02. 0:00 9 2 - 330° NW
Do, 21.02. 23:55 9 2 - 330° NW
Do, 21.02. 23:00 9 2 - 340° N
Ortszeit Untergrenze Bedeckung Gattung
total tief tief mittel hoch
Fr, 22.02. 1:00 660 m 2/8 2/8 Sc - -
Do, 21.02. 19:00 750 m 2/8 2/8 Cu - -
Do, 21.02. 13:00 750 m 2/8 2/8 Sc - -
Do, 21.02. 7:00 750 m 1/8 1/8 Sc - -
Do, 21.02. 1:00 - 0/8 0/8 - - -
Mi, 20.02. 19:00 600 m 3/8 1/8 Sc - Ci
Mi, 20.02. 13:00 660 m 4/8 3/8 Sc - Ci
Mi, 20.02. 7:00 750 m 4/8 2/8 Sc - Ci
Ortszeit Bedeckungsgrad in Achtel und Wolkenuntergrenze
Fr, 22.02. 3:00 5(1380m)
Fr, 22.02. 2:55 5-7(1380m)
Fr, 22.02. 2:00 2(600m) 5(1500m)
Fr, 22.02. 1:55 1-2(600m) 5-7(1500m)
Fr, 22.02. 1:00 2(660m)
Fr, 22.02. 0:55 1-2(660m)
Fr, 22.02. 0:00 3(900m)
Do, 21.02. 23:55 3-4(900m)
Do, 21.02. 23:00 3(750m)
Ortszeit Luftdruck NN (hPa) Tendenz (hPa in 3 Std.)
Fr, 22.02. 1:00 1028 0,0
Do, 21.02. 19:00 1028 + 0,5
Do, 21.02. 13:00 1028 - 0,2
Do, 21.02. 7:00 1026 + 0,3
Do, 21.02. 1:00 1026 + 0,5
Mi, 20.02. 19:00 1024 + 0,6
Mi, 20.02. 13:00 1024 - 0,3
Mi, 20.02. 7:00 1023 0,0
Ortszeit Luftdruck NN (hPa) Tendenz (hPa in 3 Std.)
Fr, 22.02. 3:00 1028 - 0,1
Fr, 22.02. 2:55 1028 keine Meldung
Fr, 22.02. 2:00 1028 - 0,1
Fr, 22.02. 1:55 1028 keine Meldung
Fr, 22.02. 1:00 1028 0,0
Fr, 22.02. 0:55 1028 keine Meldung
Fr, 22.02. 0:00 1028 0,0
Do, 21.02. 23:55 1028 keine Meldung
Do, 21.02. 23:00 1028 + 0,1
Ortszeit Schneehöhe (cm)
Fr, 22.02. 1:00 -
Do, 21.02. 19:00 -
Do, 21.02. 13:00 -
Do, 21.02. 7:00 0
Do, 21.02. 1:00 -
Mi, 20.02. 19:00 -
Mi, 20.02. 13:00 -
Mi, 20.02. 7:00 -
Ortszeit Schneehöhe (cm)
Fr, 22.02. 3:00 -
Fr, 22.02. 2:55 -
Fr, 22.02. 2:00 -
Fr, 22.02. 1:55 -
Fr, 22.02. 1:00 -
Fr, 22.02. 0:55 -
Fr, 22.02. 0:00 -
Do, 21.02. 23:55 -
Do, 21.02. 23:00 -
Link zu dieser Seite / Seite empfehlen

Das Wetter in ...